Time;durP1;ratioP1;P1;durP2;ratioP2;P2;SDS_P1;SDS_P2;PMS_P1;PMS_P2;Temp;Humidity;BMP_temperature;BMP_pressure;BME280_temperature;BME280_humidity;BME280_pressure;Samples;Min_cycle;Max_cycle;Signal;HPM_P1;HPM_P2
2022/05/07 00:02:13;;;;;;;97.30;81.90;;;;;;;13.42;100.00;99498.23;104904;1274;74421;-75
2022/05/07 00:04:39;;;;;;;98.90;82.40;;;;;;;13.40;100.00;99497.60;104967;1274;70298;-75
2022/05/07 00:07:07;;;;;;;99.70;82.70;;;;;;;13.39;100.00;99500.73;104897;1274;74149;-76
2022/05/07 00:09:35;;;;;;;108.20;90.60;;;;;;;13.38;100.00;99500.41;104920;1274;61095;-74
2022/05/07 00:12:02;;;;;;;114.00;93.00;;;;;;;13.38;100.00;99499.39;104950;1274;62239;-76
2022/05/07 00:14:29;;;;;;;134.00;101.90;;;;;;;13.37;100.00;99501.20;104849;1274;74503;-74
2022/05/07 00:19:41;;;;;;;123.70;95.50;;;;;;;13.37;100.00;99499.23;104920;1274;73174;-74
2022/05/07 00:22:08;;;;;;;101.20;83.90;;;;;;;13.37;100.00;99498.75;104887;1274;61151;-75
2022/05/07 00:24:34;;;;;;;97.90;80.50;;;;;;;13.36;100.00;99495.96;104984;1274;60548;-76
2022/05/07 00:27:01;;;;;;;103.60;86.30;;;;;;;13.33;100.00;99496.48;104921;1274;60522;-76
2022/05/07 00:29:27;;;;;;;108.90;88.50;;;;;;;13.33;100.00;99495.09;104817;1274;69201;-76
2022/05/07 00:31:54;;;;;;;102.90;86.30;;;;;;;13.32;100.00;99492.46;104921;1274;60451;-75
2022/05/07 00:34:21;;;;;;;111.30;89.30;;;;;;;13.31;100.00;99495.05;104958;1274;60510;-76
2022/05/07 00:36:48;;;;;;;105.00;86.90;;;;;;;13.29;100.00;99492.88;104888;1274;60345;-75
2022/05/07 00:39:15;;;;;;;108.90;86.80;;;;;;;13.28;100.00;99492.23;104934;1274;75277;-75
2022/05/07 00:41:41;;;;;;;102.10;85.70;;;;;;;13.26;100.00;99491.10;104984;1274;69184;-75
2022/05/07 00:44:08;;;;;;;103.50;85.70;;;;;;;13.24;100.00;99491.02;104945;1273;73487;-74
2022/05/07 00:46:35;;;;;;;111.50;92.80;;;;;;;13.24;100.00;99489.30;104934;1273;60478;-76
2022/05/07 00:49:02;;;;;;;111.20;89.10;;;;;;;13.24;100.00;99486.60;104789;1274;60753;-75
2022/05/07 00:51:35;;;;;;;103.40;87.90;;;;;;;13.23;100.00;99487.72;104909;1274;74293;-73
2022/05/07 00:54:09;;;;;;;102.70;86.50;;;;;;;13.21;100.00;99485.57;104948;1274;69957;-75
2022/05/07 00:56:36;;;;;;;103.60;87.30;;;;;;;13.18;100.00;99480.93;104935;1272;73116;-74
2022/05/07 00:59:04;;;;;;;109.60;86.70;;;;;;;13.16;100.00;99483.95;104923;1274;60602;-75
2022/05/07 01:01:31;;;;;;;107.30;87.20;;;;;;;13.13;100.00;99482.52;105020;1274;61977;-75
2022/05/07 01:03:58;;;;;;;105.50;88.40;;;;;;;13.11;100.00;99483.23;104948;1274;75889;-75
2022/05/07 01:06:24;;;;;;;100.10;81.30;;;;;;;13.09;100.00;99481.52;104993;1274;69174;-76
2022/05/07 01:08:51;;;;;;;88.00;75.00;;;;;;;13.09;100.00;99480.18;104889;1274;73360;-75
2022/05/07 01:11:19;;;;;;;91.50;75.10;;;;;;;13.06;100.00;99481.45;104921;1274;60513;-75
2022/05/07 01:13:47;;;;;;;99.90;83.30;;;;;;;13.03;100.00;99478.20;104925;1274;60975;-74
2022/05/07 01:16:14;;;;;;;98.90;82.50;;;;;;;13.06;100.00;99474.66;104959;1273;74457;-75
2022/05/07 01:18:42;;;;;;;85.10;73.70;;;;;;;13.07;100.00;99476.36;104964;1273;68571;-76
2022/05/07 01:21:14;;;;;;;86.70;72.60;;;;;;;13.06;100.00;99476.29;104965;1273;74699;-76
2022/05/07 01:23:43;;;;;;;92.10;79.30;;;;;;;13.05;100.00;99480.06;104867;1274;61676;-75
2022/05/07 01:26:11;;;;;;;93.40;78.80;;;;;;;13.07;100.00;99480.64;104985;1274;61042;-77
2022/05/07 01:28:39;;;;;;;92.70;81.90;;;;;;;13.09;100.00;99480.88;104976;1274;74352;-77
2022/05/07 01:31:07;;;;;;;96.90;82.50;;;;;;;13.09;100.00;99479.44;104961;1274;69126;-75
2022/05/07 01:33:35;;;;;;;110.40;90.20;;;;;;;13.09;100.00;99477.10;104871;1274;74260;-75
2022/05/07 01:36:02;;;;;;;100.80;83.10;;;;;;;13.10;100.00;99476.81;104927;1274;60725;-74
2022/05/07 01:38:30;;;;;;;98.30;82.80;;;;;;;13.11;100.00;99477.34;104560;1274;61203;-75
2022/05/07 01:40:59;;;;;;;96.90;81.00;;;;;;;13.11;100.00;99474.47;105033;1274;74339;-74
2022/05/07 01:43:32;;;;;;;91.10;75.90;;;;;;;13.11;100.00;99473.76;105020;1274;69601;-76
2022/05/07 01:46:03;;;;;;;92.70;78.70;;;;;;;13.11;100.00;99472.85;104915;1274;75147;-76
2022/05/07 01:48:30;;;;;;;93.30;80.60;;;;;;;13.11;100.00;99473.94;104919;1272;60515;-75
2022/05/07 01:50:56;;;;;;;95.50;81.40;;;;;;;13.10;100.00;99474.86;104952;1274;60799;-75
2022/05/07 01:53:23;;;;;;;97.00;80.50;;;;;;;13.09;100.00;99472.96;104920;1274;60482;-76
2022/05/07 01:55:49;;;;;;;98.50;83.10;;;;;;;13.10;100.00;99474.74;104935;1274;60459;-75
2022/05/07 01:58:16;;;;;;;95.30;81.20;;;;;;;13.10;100.00;99475.42;104906;1274;60500;-74
2022/05/07 02:00:42;;;;;;;97.30;80.40;;;;;;;13.10;100.00;99475.08;104936;1274;60485;-75
2022/05/07 02:03:09;;;;;;;91.30;78.40;;;;;;;13.11;100.00;99475.02;104843;1274;60777;-75
2022/05/07 02:05:36;;;;;;;93.10;80.20;;;;;;;13.10;100.00;99473.28;104904;1272;74848;-76
2022/05/07 02:08:03;;;;;;;92.40;77.40;;;;;;;13.10;100.00;99474.73;104927;1274;67550;-74
2022/05/07 02:10:29;;;;;;;105.80;87.00;;;;;;;13.08;100.00;99472.90;104835;1274;74503;-75
2022/05/07 02:12:56;;;;;;;117.90;96.10;;;;;;;13.08;100.00;99471.82;104854;1274;60484;-73
2022/05/07 02:15:23;;;;;;;117.40;96.20;;;;;;;13.08;100.00;99473.09;104939;1274;62109;-75
2022/05/07 02:17:49;;;;;;;120.80;96.50;;;;;;;13.08;100.00;99475.23;104948;1274;60574;-74
2022/05/07 02:20:16;;;;;;;118.20;94.80;;;;;;;13.08;100.00;99475.78;104878;1274;60412;-75
2022/05/07 02:22:44;;;;;;;112.90;91.40;;;;;;;13.06;100.00;99477.30;104910;1274;60484;-77
2022/05/07 02:25:11;;;;;;;112.40;90.40;;;;;;;13.06;100.00;99477.48;104938;1274;60532;-76
2022/05/07 02:27:38;;;;;;;114.30;95.90;;;;;;;13.06;100.00;99475.16;104941;1274;60380;-75
2022/05/07 02:30:05;;;;;;;103.20;85.80;;;;;;;13.06;100.00;99476.05;104939;1274;75331;-75
2022/05/07 02:32:31;;;;;;;105.30;85.90;;;;;;;13.04;100.00;99483.20;104775;1274;69341;-74
2022/05/07 02:34:58;;;;;;;100.00;82.40;;;;;;;13.01;100.00;99480.88;104910;1274;60572;-72
2022/05/07 02:37:24;;;;;;;102.90;84.40;;;;;;;13.00;100.00;99480.77;104813;1275;60514;-75
2022/05/07 02:39:53;;;;;;;97.20;79.60;;;;;;;12.97;100.00;99479.21;104957;1274;60835;-74
2022/05/07 02:42:39;;;;;;;100.10;81.40;;;;;;;12.94;100.00;99482.39;104923;1274;74247;-76
2022/05/07 02:45:07;;;;;;;92.10;78.00;;;;;;;12.93;100.00;99482.83;104919;1273;69660;-74
2022/05/07 02:47:40;;;;;;;93.70;79.50;;;;;;;12.92;100.00;99482.91;104944;1274;70518;-75
2022/05/07 02:50:09;;;;;;;90.40;77.40;;;;;;;12.92;100.00;99482.59;104910;1274;60588;-76
2022/05/07 02:52:37;;;;;;;87.80;76.40;;;;;;;12.92;100.00;99484.16;104954;1274;60430;-76
2022/05/07 02:55:05;;;;;;;90.80;77.80;;;;;;;12.90;100.00;99485.36;104860;1274;73358;-75
2022/05/07 02:57:32;;;;;;;89.90;76.80;;;;;;;12.88;100.00;99486.03;104963;1274;68927;-75
2022/05/07 02:59:59;;;;;;;96.30;79.50;;;;;;;12.87;100.00;99482.70;104885;1272;73251;-75
2022/05/07 03:02:25;;;;;;;95.30;82.60;;;;;;;12.88;100.00;99487.48;104923;1274;61257;-75
2022/05/07 03:04:52;;;;;;;93.20;79.40;;;;;;;12.88;100.00;99489.44;104901;1274;61224;-75
2022/05/07 03:07:19;;;;;;;96.10;78.40;;;;;;;12.89;100.00;99490.98;104914;1272;74387;-76
2022/05/07 03:09:45;;;;;;;99.20;84.90;;;;;;;12.90;100.00;99489.33;104929;1274;60560;-73
2022/05/07 03:12:12;;;;;;;109.20;90.40;;;;;;;12.90;100.00;99488.25;104907;1274;60459;-76
2022/05/07 03:14:39;;;;;;;107.20;92.00;;;;;;;12.90;100.00;99489.11;104907;1274;60478;-75
2022/05/07 03:17:05;;;;;;;104.50;89.90;;;;;;;12.90;100.00;99488.74;104924;1274;60805;-75
2022/05/07 03:19:32;;;;;;;100.10;84.30;;;;;;;12.89;100.00;99484.70;104901;1274;73321;-75
2022/05/07 03:21:58;;;;;;;93.20;80.10;;;;;;;12.88;100.00;99487.45;104819;1274;60469;-75
2022/05/07 03:24:25;;;;;;;92.10;80.40;;;;;;;12.89;100.00;99483.88;104888;1272;60494;-76
2022/05/07 03:26:51;;;;;;;84.90;75.30;;;;;;;12.88;100.00;99485.14;104930;1274;60577;-75
2022/05/07 03:29:18;;;;;;;85.20;75.30;;;;;;;12.88;100.00;99484.65;104884;1273;60522;-80
2022/05/07 03:31:48;;;;;;;86.90;75.60;;;;;;;12.88;100.00;99488.19;104916;1274;60529;-79
2022/05/07 03:34:16;;;;;;;86.40;75.70;;;;;;;12.88;100.00;99490.65;104904;1274;69179;-79
2022/05/07 03:36:43;;;;;;;83.30;72.60;;;;;;;12.89;100.00;99487.05;104979;1274;72359;-76
2022/05/07 03:39:12;;;;;;;81.50;72.60;;;;;;;12.90;100.00;99486.44;104908;1274;60637;-78
2022/05/07 03:41:39;;;;;;;82.90;73.90;;;;;;;12.91;100.00;99487.64;104950;1274;60934;-77
2022/05/07 03:44:05;;;;;;;81.10;72.30;;;;;;;12.90;100.00;99486.08;104920;1273;75277;-76
2022/05/07 03:46:32;;;;;;;77.50;69.20;;;;;;;12.89;100.00;99485.59;104793;1277;60683;-78
2022/05/07 03:48:59;;;;;;;80.40;71.60;;;;;;;12.89;100.00;99486.84;104931;1274;74230;-76
2022/05/07 03:51:25;;;;;;;81.70;72.80;;;;;;;12.90;100.00;99480.73;104909;1274;60593;-79
2022/05/07 03:53:52;;;;;;;89.10;75.90;;;;;;;12.92;100.00;99481.15;104907;1274;60422;-77
2022/05/07 03:56:18;;;;;;;84.90;73.70;;;;;;;12.94;100.00;99485.98;104902;1274;60463;-77
2022/05/07 03:58:45;;;;;;;80.90;71.70;;;;;;;12.96;100.00;99485.82;104907;1274;60436;-76
2022/05/07 04:01:11;;;;;;;82.00;70.00;;;;;;;12.99;100.00;99484.75;104895;1274;60557;-76
2022/05/07 04:03:38;;;;;;;78.40;69.70;;;;;;;13.00;100.00;99485.75;104918;1274;60498;-75
2022/05/07 04:06:04;;;;;;;78.50;70.00;;;;;;;13.00;100.00;99484.73;104895;1274;60517;-76
2022/05/07 04:08:31;;;;;;;84.20;73.40;;;;;;;13.01;100.00;99487.64;104843;1274;74379;-76
2022/05/07 04:10:58;;;;;;;75.90;67.20;;;;;;;13.04;100.00;99486.18;104948;1274;70175;-75
2022/05/07 04:13:24;;;;;;;74.00;66.20;;;;;;;13.08;100.00;99483.43;104764;1274;72315;-75
2022/05/07 04:15:51;;;;;;;75.20;66.80;;;;;;;13.09;100.00;99487.61;104909;1274;60462;-75
2022/05/07 04:18:17;;;;;;;75.80;67.60;;;;;;;13.11;100.00;99490.35;104910;1273;60386;-75
2022/05/07 04:20:44;;;;;;;77.00;66.50;;;;;;;13.12;100.00;99492.06;104889;1274;60796;-74
2022/05/07 04:23:10;;;;;;;78.80;70.20;;;;;;;13.13;100.00;99499.32;104897;1274;60594;-76
2022/05/07 04:25:38;;;;;;;76.70;68.30;;;;;;;13.14;100.00;99498.52;104914;1274;73233;-76
2022/05/07 04:28:04;;;;;;;103.80;80.80;;;;;;;13.16;100.00;99499.98;104958;1274;60584;-74
2022/05/07 04:30:31;;;;;;;88.20;72.10;;;;;;;13.16;100.00;99500.67;104898;1274;60537;-75
2022/05/07 04:32:58;;;;;;;82.50;73.70;;;;;;;13.17;100.00;99503.70;104928;1274;74210;-76
2022/05/07 04:35:24;;;;;;;89.50;77.90;;;;;;;13.17;100.00;99499.89;104935;1273;69270;-75
2022/05/07 04:37:51;;;;;;;73.70;61.20;;;;;;;13.17;100.00;99499.58;104907;1274;74397;-76
2022/05/07 04:40:17;;;;;;;74.20;64.60;;;;;;;13.15;100.00;99506.27;104886;1274;60597;-75
2022/05/07 04:42:44;;;;;;;72.50;64.90;;;;;;;13.15;100.00;99509.83;104913;1274;60613;-77
2022/05/07 04:45:11;;;;;;;78.20;70.00;;;;;;;13.15;100.00;99508.77;104922;1274;60632;-75
2022/05/07 04:47:38;;;;;;;75.60;67.60;;;;;;;13.14;100.00;99507.42;105007;1274;69192;-75
2022/05/07 04:50:05;;;;;;;75.40;67.50;;;;;;;13.16;100.00;99508.33;104838;1274;73324;-75
2022/05/07 04:52:32;;;;;;;76.60;68.50;;;;;;;13.18;100.00;99506.75;104907;1274;60701;-74
2022/05/07 04:55:01;;;;;;;82.30;73.70;;;;;;;13.21;100.00;99506.25;104957;1274;60447;-76
2022/05/07 04:57:27;;;;;;;77.10;69.00;;;;;;;13.27;100.00;99505.34;105023;1274;74678;-74
2022/05/07 04:59:54;;;;;;;76.90;68.40;;;;;;;13.33;100.00;99507.95;104927;1274;60450;-75
2022/05/07 05:02:21;;;;;;;72.90;65.30;;;;;;;13.40;100.00;99509.77;104926;1274;73539;-75
2022/05/07 05:04:47;;;;;;;70.40;62.70;;;;;;;13.46;100.00;99508.08;104904;1274;60666;-76
2022/05/07 05:07:14;;;;;;;68.40;61.10;;;;;;;13.54;100.00;99510.21;104914;1274;60527;-74
2022/05/07 05:09:41;;;;;;;68.30;61.20;;;;;;;13.62;100.00;99510.20;104910;1274;73643;-77
2022/05/07 05:12:08;;;;;;;67.60;60.20;;;;;;;13.68;100.00;99511.89;104828;1273;60491;-76
2022/05/07 05:17:19;;;;;;;66.50;59.50;;;;;;;13.76;100.00;99514.49;104893;1274;60593;-75
2022/05/07 05:19:45;;;;;;;62.30;55.50;;;;;;;13.79;100.00;99517.16;104912;1274;60539;-76
2022/05/07 05:22:12;;;;;;;64.20;57.40;;;;;;;13.82;100.00;99517.33;104921;1274;60683;-75
2022/05/07 05:24:38;;;;;;;65.40;58.50;;;;;;;13.87;100.00;99520.58;104914;1274;60592;-75
2022/05/07 05:27:05;;;;;;;66.40;59.30;;;;;;;13.91;100.00;99522.58;104923;1274;60485;-75
2022/05/07 05:29:32;;;;;;;66.50;59.70;;;;;;;13.97;100.00;99523.23;104926;1274;60852;-74
2022/05/07 05:31:59;;;;;;;61.50;54.90;;;;;;;14.04;100.00;99526.80;104929;1274;61171;-75
2022/05/07 05:34:27;;;;;;;61.90;55.10;;;;;;;14.11;100.00;99525.24;104889;1274;74331;-75
2022/05/07 05:36:53;;;;;;;61.90;55.30;;;;;;;14.16;100.00;99526.33;104949;1273;69226;-75
2022/05/07 05:39:20;;;;;;;63.60;56.20;;;;;;;14.23;100.00;99528.48;104930;1274;60583;-74
2022/05/07 05:41:46;;;;;;;61.80;55.50;;;;;;;14.30;100.00;99533.67;104930;1274;60488;-75
2022/05/07 05:44:13;;;;;;;62.50;55.90;;;;;;;14.37;100.00;99534.23;104945;1274;60485;-77
2022/05/07 05:46:39;;;;;;;61.10;54.50;;;;;;;14.44;100.00;99534.40;104934;1274;60536;-76
2022/05/07 05:49:06;;;;;;;61.40;53.90;;;;;;;14.51;100.00;99539.09;104935;1272;60488;-76
2022/05/07 05:51:32;;;;;;;58.80;52.60;;;;;;;14.55;100.00;99537.23;104827;1274;74408;-75
2022/05/07 05:53:59;;;;;;;58.80;52.80;;;;;;;14.63;100.00;99537.47;104824;1274;60491;-75
2022/05/07 05:56:25;;;;;;;57.80;51.80;;;;;;;14.72;100.00;99540.02;104962;1274;60590;-76
2022/05/07 05:58:52;;;;;;;59.60;53.50;;;;;;;14.80;100.00;99537.96;104983;1273;60608;-76
2022/05/07 06:01:18;;;;;;;61.90;55.80;;;;;;;14.89;100.00;99541.20;104924;1274;60466;-74
2022/05/07 06:03:45;;;;;;;63.90;57.10;;;;;;;14.98;100.00;99543.98;104913;1274;60341;-76
2022/05/07 06:06:11;;;;;;;65.50;58.60;;;;;;;15.03;100.00;99543.98;104914;1273;60567;-74
2022/05/07 06:08:38;;;;;;;65.60;58.60;;;;;;;15.02;100.00;99540.83;104914;1274;60541;-74
2022/05/07 06:11:04;;;;;;;63.40;56.50;;;;;;;15.00;100.00;99545.29;104907;1274;60592;-76
2022/05/07 06:13:32;;;;;;;64.20;57.60;;;;;;;15.01;100.00;99547.70;104882;1274;60962;-75
2022/05/07 06:15:59;;;;;;;61.90;55.70;;;;;;;15.04;100.00;99546.17;104965;1274;73237;-76
2022/05/07 06:18:26;;;;;;;58.70;52.20;;;;;;;15.05;100.00;99551.30;104933;1274;60536;-75
2022/05/07 06:20:52;;;;;;;57.20;50.30;;;;;;;15.07;100.00;99550.66;104946;1274;60770;-75
2022/05/07 06:23:19;;;;;;;49.30;44.30;;;;;;;15.07;100.00;99554.91;104858;1274;73558;-73
2022/05/07 06:28:30;;;;;;;51.60;45.70;;;;;;;15.10;100.00;99554.13;104898;1273;72643;-75
2022/05/07 06:30:59;;;;;;;49.80;44.80;;;;;;;15.19;100.00;99554.67;104683;1274;60379;-75
2022/05/07 06:33:28;;;;;;;49.10;43.80;;;;;;;15.30;100.00;99555.08;104810;1274;62157;-76
2022/05/07 06:35:55;;;;;;;48.40;43.50;;;;;;;15.43;100.00;99560.60;104993;1274;75488;-76
2022/05/07 06:38:22;;;;;;;48.10;42.80;;;;;;;15.53;100.00;99557.64;104942;1274;70630;-75
2022/05/07 06:40:50;;;;;;;50.50;45.30;;;;;;;15.60;100.00;99555.98;104941;1274;71660;-75
2022/05/07 06:43:17;;;;;;;50.40;45.30;;;;;;;15.65;100.00;99557.42;104982;1274;60638;-76
2022/05/07 06:45:44;;;;;;;49.10;44.00;;;;;;;15.73;100.00;99558.36;104944;1274;60493;-75
2022/05/07 06:48:11;;;;;;;47.30;42.20;;;;;;;15.78;100.00;99561.78;104942;1274;60803;-76
2022/05/07 06:50:39;;;;;;;45.60;40.80;;;;;;;15.81;100.00;99563.66;104956;1274;70630;-76
2022/05/07 06:53:05;;;;;;;42.30;38.20;;;;;;;15.85;100.00;99566.40;104966;1274;73322;-75
2022/05/07 06:55:33;;;;;;;45.00;40.50;;;;;;;15.91;100.00;99566.70;104981;1274;60485;-75
2022/05/07 06:57:59;;;;;;;42.10;37.80;;;;;;;15.96;100.00;99570.20;104922;1274;60932;-77
2022/05/07 07:00:26;;;;;;;38.20;34.10;;;;;;;16.03;100.00;99568.55;104925;1274;75619;-75
2022/05/07 07:02:52;;;;;;;36.80;32.30;;;;;;;16.10;100.00;99571.20;104931;1274;60632;-74
2022/05/07 07:05:20;;;;;;;34.80;31.40;;;;;;;16.18;100.00;99569.31;104830;1275;60616;-75
2022/05/07 07:07:47;;;;;;;33.20;29.60;;;;;;;16.29;100.00;99570.39;104945;1274;60546;-77
2022/05/07 07:10:14;;;;;;;32.20;28.60;;;;;;;16.50;100.00;99571.58;104944;1274;61084;-76
2022/05/07 07:12:40;;;;;;;29.10;26.20;;;;;;;16.66;100.00;99572.33;104915;1274;59270;-75
2022/05/07 07:15:10;;;;;;;33.10;29.70;;;;;;;16.79;100.00;99567.18;104901;1274;60570;-76
2022/05/07 07:17:37;;;;;;;;;;;;;;;16.96;100.00;99569.55;104936;1274;73155;-75
2022/05/07 07:20:04;;;;;;;33.70;29.50;;;;;;;17.14;100.00;99566.23;104912;1274;60552;-75
2022/05/07 07:22:30;;;;;;;34.30;29.90;;;;;;;17.34;100.00;99564.17;104807;1275;60840;-75
2022/05/07 07:24:56;;;;;;;29.50;26.40;;;;;;;17.47;100.00;99562.98;104910;1274;60491;-75
2022/05/07 07:27:23;;;;;;;30.40;27.20;;;;;;;17.63;100.00;99563.15;104744;1275;60743;-76
2022/05/07 07:29:50;;;;;;;32.60;29.10;;;;;;;17.77;100.00;99561.90;104950;1274;60598;-75
2022/05/07 07:32:16;;;;;;;30.30;27.10;;;;;;;17.91;100.00;99566.25;104948;1274;60697;-74
2022/05/07 07:34:44;;;;;;;30.00;26.80;;;;;;;17.97;100.00;99568.92;104724;1274;235423;-76
2022/05/07 07:37:11;;;;;;;29.80;26.70;;;;;;;18.04;100.00;99564.90;104912;1274;75887;-75
2022/05/07 07:39:38;;;;;;;31.60;26.60;;;;;;;18.16;100.00;99568.83;104923;1274;70382;-76
2022/05/07 07:42:05;;;;;;;26.30;23.60;;;;;;;18.32;100.00;99568.86;104925;1274;60488;-75
2022/05/07 07:44:32;;;;;;;26.00;23.30;;;;;;;18.42;100.00;99568.30;104826;1274;60507;-76
2022/05/07 07:49:43;;;;;;;25.60;22.90;;;;;;;18.78;100.00;99569.60;104962;1274;75731;-75
2022/05/07 07:52:10;;;;;;;29.00;23.80;;;;;;;18.71;100.00;99569.17;104938;1274;60539;-76
2022/05/07 07:54:36;;;;;;;25.50;22.90;;;;;;;18.66;100.00;99568.45;104863;1275;60670;-76
2022/05/07 07:57:03;;;;;;;27.80;24.90;;;;;;;18.72;100.00;99567.98;104914;1274;60803;-75
2022/05/07 07:59:30;;;;;;;23.60;21.10;;;;;;;18.72;100.00;99573.70;104947;1274;62212;-75
2022/05/07 08:01:56;;;;;;;21.40;19.10;;;;;;;18.77;100.00;99575.77;104811;1275;75324;-75
2022/05/07 08:04:25;;;;;;;21.80;19.60;;;;;;;18.70;100.00;99578.02;104970;1271;70746;-76
2022/05/07 08:12:25;;;;;;;22.50;18.20;;;;;;;18.60;100.00;99576.77;105039;1271;61858;-78
2022/05/07 08:14:51;;;;;;;21.00;17.40;;;;;;;18.73;100.00;99576.31;105166;1271;74345;-76
2022/05/07 08:17:18;;;;;;;20.80;15.70;;;;;;;18.81;100.00;99576.49;104863;1274;69168;-76
2022/05/07 08:19:44;;;;;;;16.20;14.40;;;;;;;18.92;100.00;99576.78;104996;1271;74129;-76
2022/05/07 08:22:11;;;;;;;16.90;13.60;;;;;;;19.00;98.41;99583.58;104970;1271;60469;-75
2022/05/07 08:24:38;;;;;;;13.80;12.40;;;;;;;18.94;97.81;99585.63;105001;1271;60594;-76
2022/05/07 08:27:06;;;;;;;14.40;12.90;;;;;;;18.92;97.09;99583.23;105001;1271;74601;-76
2022/05/07 08:29:32;;;;;;;14.10;12.50;;;;;;;19.00;96.57;99581.45;105052;1271;69152;-77
2022/05/07 08:31:59;;;;;;;16.30;14.60;;;;;;;19.12;94.70;99586.65;104960;1271;74298;-77
2022/05/07 08:34:26;;;;;;;16.10;14.50;;;;;;;19.14;92.45;99584.23;105031;1271;60538;-79
2022/05/07 08:36:53;;;;;;;19.00;16.20;;;;;;;19.19;92.02;99583.29;104924;1271;60876;-77
2022/05/07 08:39:19;;;;;;;15.90;14.00;;;;;;;19.21;92.20;99582.31;105029;1271;60418;-76
2022/05/07 08:41:47;;;;;;;17.90;13.90;;;;;;;19.32;92.06;99582.36;104871;1272;69239;-76
2022/05/07 08:44:13;;;;;;;16.90;15.10;;;;;;;19.43;92.22;99586.06;104960;1271;74361;-76
2022/05/07 08:46:42;;;;;;;16.60;12.60;;;;;;;19.50;91.61;99587.19;105008;1271;60488;-76
2022/05/07 08:49:12;;;;;;;17.80;16.10;;;;;;;19.53;91.72;99584.36;105043;1271;60811;-77
2022/05/07 08:51:41;;;;;;;19.80;14.70;;;;;;;19.70;92.37;99586.36;105038;1271;74438;-77
2022/05/07 08:54:10;;;;;;;14.40;12.80;;;;;;;19.82;90.77;99586.56;105194;1271;67291;-76
2022/05/07 08:56:36;;;;;;;16.90;13.20;;;;;;;19.83;89.87;99581.80;104963;1271;73949;-76
2022/05/07 08:59:03;;;;;;;14.50;10.90;;;;;;;19.82;88.87;99584.67;105008;1271;60943;-77
2022/05/07 09:01:29;;;;;;;14.70;11.80;;;;;;;19.83;88.62;99589.83;104995;1271;60376;-76
2022/05/07 09:03:58;;;;;;;14.80;13.40;;;;;;;19.96;87.70;99587.73;105010;1271;60370;-77
2022/05/07 09:06:26;;;;;;;11.80;9.70;;;;;;;20.09;88.03;99589.27;105010;1271;69464;-76
2022/05/07 09:08:56;;;;;;;11.70;10.50;;;;;;;20.21;86.14;99587.97;104998;1271;71275;-77
2022/05/07 09:11:23;;;;;;;11.60;9.30;;;;;;;20.34;86.83;99592.26;105071;1271;60519;-77
2022/05/07 09:14:01;;;;;;;10.80;9.20;;;;;;;20.54;87.41;99592.30;105091;1270;60434;-77
2022/05/07 09:16:41;;;;;;;11.90;9.40;;;;;;;20.76;86.53;99595.23;105039;1271;75104;-77
2022/05/07 09:19:28;;;;;;;9.40;8.30;;;;;;;20.87;86.13;99596.98;104997;1271;69274;-77
2022/05/07 09:22:08;;;;;;;9.10;8.20;;;;;;;20.87;84.42;99598.62;104939;1272;74696;-77
2022/05/07 09:24:35;;;;;;;9.40;8.50;;;;;;;20.86;84.27;99605.26;105015;1271;60412;-77
2022/05/07 09:27:03;;;;;;;9.70;8.80;;;;;;;20.92;84.48;99603.02;104968;1271;61877;-77
2022/05/07 09:29:32;;;;;;;11.90;9.20;;;;;;;21.06;85.62;99601.44;105026;1271;74444;-77
2022/05/07 09:32:15;;;;;;;10.40;7.80;;;;;;;21.25;85.56;99596.64;104999;1271;69170;-76
2022/05/07 09:37:36;;;;;;;8.30;7.50;;;;;;;21.40;81.58;99599.67;105026;1271;60593;-78
2022/05/07 09:40:10;;;;;;;8.80;8.00;;;;;;;21.33;78.96;99601.93;104886;1271;61133;-77
2022/05/07 09:42:38;;;;;;;9.00;8.00;;;;;;;21.26;79.50;99600.79;105285;1271;74372;-77
2022/05/07 09:45:06;;;;;;;9.80;8.80;;;;;;;21.26;78.93;99601.56;104941;1272;69947;-75
2022/05/07 09:47:34;;;;;;;11.70;8.90;;;;;;;21.21;77.25;99600.78;105145;1272;74407;-76
2022/05/07 09:50:20;;;;;;;9.40;8.50;;;;;;;21.24;75.24;99597.19;105065;1271;60603;-76
2022/05/07 09:58:20;;;;;;;16.80;12.10;;;;;;;21.71;73.46;99587.73;104997;1271;69223;-77
2022/05/07 10:01:22;;;;;;;14.00;12.60;;;;;;;21.87;73.61;99587.83;105003;1271;74097;-76
2022/05/07 10:04:06;;;;;;;14.10;12.70;;;;;;;22.09;71.21;99588.11;105028;1270;60469;-78
2022/05/07 10:06:46;;;;;;;13.60;11.30;;;;;;;21.96;67.75;99587.07;105044;1271;61237;-77
2022/05/07 10:09:41;;;;;;;;;;;;;;;21.86;65.82;99584.02;105029;1271;75341;-76
2022/05/07 10:12:10;;;;;;;12.10;10.80;;;;;;;21.62;60.08;99582.48;104490;1280;70135;-76
2022/05/07 10:14:36;;;;;;;12.80;11.50;;;;;;;21.52;59.93;99584.35;104503;1280;73468;-77
2022/05/07 10:17:11;;;;;;;10.80;9.70;;;;;;;21.60;60.64;99581.27;104471;1280;60507;-76
2022/05/07 10:19:45;;;;;;;12.20;10.20;;;;;;;21.76;60.67;99581.80;104284;1280;60616;-77
2022/05/07 10:22:24;;;;;;;10.60;9.10;;;;;;;21.92;60.35;99579.14;104451;1280;75749;-78
2022/05/07 10:25:11;;;;;;;10.70;9.00;;;;;;;22.11;60.24;99575.02;104479;1280;70360;-77
2022/05/07 10:27:43;;;;;;;11.50;9.10;;;;;;;22.21;59.15;99578.71;104473;1280;73195;-76
2022/05/07 10:30:13;;;;;;;10.00;8.90;;;;;;;22.22;59.15;99577.90;104451;1279;60488;-76
2022/05/07 10:32:58;;;;;;;9.90;8.90;;;;;;;22.21;59.00;99575.30;104550;1280;60524;-75
2022/05/07 10:35:52;;;;;;;10.50;9.30;;;;;;;22.14;59.00;99576.54;104451;1280;75416;-76
2022/05/07 10:38:27;;;;;;;11.70;9.70;;;;;;;22.10;58.56;99574.41;104527;1280;69796;-76
2022/05/07 10:40:58;;;;;;;13.50;12.10;;;;;;;22.00;57.85;99576.53;104503;1279;73271;-76
2022/05/07 10:43:36;;;;;;;13.90;11.90;;;;;;;21.63;54.95;99577.50;104476;1278;60540;-75
2022/05/07 10:46:08;;;;;;;12.30;11.00;;;;;;;21.13;54.80;99578.45;104512;1280;62001;-77
2022/05/07 10:48:47;;;;;;;12.60;11.20;;;;;;;20.92;55.76;99577.58;104488;1271;74311;-76
2022/05/07 10:51:25;;;;;;;14.90;11.00;;;;;;;20.83;56.55;99578.84;105039;1271;70471;-77
2022/05/07 10:53:52;;;;;;;12.90;10.40;;;;;;;20.75;58.30;99581.07;104953;1271;74542;-77
2022/05/07 10:56:20;;;;;;;12.70;11.40;;;;;;;20.68;59.16;99580.09;104891;1271;60652;-76
2022/05/07 10:58:49;;;;;;;14.40;11.40;;;;;;;20.53;60.09;99581.77;105111;1271;60761;-76
2022/05/07 11:01:17;;;;;;;15.40;12.80;;;;;;;20.37;61.13;99578.95;104970;1271;74444;-77
2022/05/07 11:03:44;;;;;;;12.70;11.40;;;;;;;20.27;61.72;99581.98;105033;1271;70323;-75
2022/05/07 11:06:12;;;;;;;13.70;12.10;;;;;;;20.12;62.17;99579.60;105038;1271;74483;-75
2022/05/07 11:08:49;;;;;;;14.30;12.70;;;;;;;19.99;62.30;99577.84;104997;1271;60523;-76
2022/05/07 11:11:17;;;;;;;13.80;12.50;;;;;;;19.89;63.08;99579.15;105047;1268;62530;-76
2022/05/07 11:13:47;;;;;;;15.60;13.90;;;;;;;19.86;63.58;99577.48;105060;1271;72735;-75
2022/05/07 11:16:16;;;;;;;14.50;13.00;;;;;;;19.85;64.01;99578.45;104999;1271;70069;-76
2022/05/07 11:18:50;;;;;;;17.60;14.00;;;;;;;19.85;64.31;99572.67;105025;1271;73642;-76
2022/05/07 11:21:22;;;;;;;14.20;12.30;;;;;;;20.05;65.09;99574.40;104939;1271;60635;-76
2022/05/07 11:23:53;;;;;;;14.30;12.20;;;;;;;20.32;65.31;99571.73;105039;1271;60754;-76
2022/05/07 11:26:20;;;;;;;14.30;12.80;;;;;;;20.60;65.05;99572.09;105089;1271;74443;-76
2022/05/07 11:28:48;;;;;;;13.60;12.30;;;;;;;20.87;64.69;99566.30;105054;1271;70763;-78
2022/05/07 11:31:34;;;;;;;14.90;12.60;;;;;;;21.16;63.79;99561.34;104950;1272;73216;-76
2022/05/07 11:34:12;;;;;;;14.00;12.60;;;;;;;21.33;61.94;99560.69;104892;1271;60489;-77
2022/05/07 11:36:39;;;;;;;13.90;12.50;;;;;;;21.45;60.59;99555.65;105105;1271;60540;-77